Max, NE (69037)

5:35 PM MDT on July 30, 2015 (GMT -0600)
3 W 1N of Trenton, NE | | Change Station
CLOSE
Current Station
Personal Weather Station
Location: Trenton, NE
Elevation: 2844 ft
Nearby Weather Stations

Elev 2844 ft 40.19 °N, 101.07 °W | Updated 4 seconds ago

Clear
Clear
88.5 °F
Feels Like 87 °F
N
5.1
Wind Variable Wind from SSE
Gusts 7.4 mph

Today
High -- | Low -- °F
--% Chance of Precip.
Yesterday
High -- | Low -- °F
Precip. -- in
5:41 AM 8:01 PM
Full, 100% visible
Pressure 30.10 in
Visibility 10.0 miles
Clouds Clear
Heat Index 87 °F
Dew Point 56 °F
Humidity 33%
Rainfall 0.00 in
Snow Depth Not available.
UV 1.0 out of 12
Pollen 6.00 out of 12
Air Quality Not available.
Flu Activity Not available.
METAR KIML 302253Z AUTO 15010KT 10SM CLR 31/12 A3018 RMK AO2 SLP193 T03110122

More Conditions Fewer Conditions

Pressure 30.10 in
Visibility 10.0 miles
Clouds Clear
Heat Index 87 °F
Dew Point 56 °F
Humidity 33%
Rainfall 0.00 in
Snow Depth Not available.
UV 1.0 out of 12
Pollen 6.00 out of 12
Air Quality Not available.
Flu Activity Not available.
METAR KIML 302253Z AUTO 15010KT 10SM CLR 31/12 A3018 RMK AO2 SLP193 T03110122

More Conditions Fewer Conditions

10-Day Weather Forecast

×

Almanac

Astronomy

Jul. 30, 2015 Rise Set
Actual Time
Civil Twilight
Nautical Twilight
Astronomical Twilight
Moon
Length of Visible Light
Length of Day
Tomorrow will be .
, % of the Moon is Illuminated

Today's Extremes

State Highs State Lows

Community

WunderPhotos

Upload Photos

1,842,542 photos uploaded!

WunderBlogs® & News

Nearby

Air Quality

  Air Quality AQ Index Pollutant
Not available.

Snow Depth

Station Depth Elevation

Earthquake Activity

City Distance Mag. Time & Date
Minimum magnitude displayed is 2.5.

Coastal Water Temperatures

Place Temperature

Stations

Nearby Weather Stations

Station Location Temp. Windchill Dew Point Humidity Wind Precip. Elev Updated Type